sensor_id;sensor_type;location;lat;lon;timestamp;P1;durP1;ratioP1;P2;durP2;ratioP2
13753;SDS011;6948;51.216;6.778;2023-04-25T00:02:00;16.07;;;5.30;;
13753;SDS011;6948;51.216;6.778;2023-04-25T00:04:26;13.73;;;5.37;;
13753;SDS011;6948;51.216;6.778;2023-04-25T00:06:53;16.47;;;5.83;;
13753;SDS011;6948;51.216;6.778;2023-04-25T00:09:19;14.27;;;5.50;;
13753;SDS011;6948;51.216;6.778;2023-04-25T00:11:44;13.93;;;5.40;;
13753;SDS011;6948;51.216;6.778;2023-04-25T00:14:10;14.83;;;5.70;;
13753;SDS011;6948;51.216;6.778;2023-04-25T00:16:36;14.63;;;4.73;;
13753;SDS011;6948;51.216;6.778;2023-04-25T00:19:02;14.17;;;5.43;;
13753;SDS011;6948;51.216;6.778;2023-04-25T00:21:27;17.77;;;5.60;;
13753;SDS011;6948;51.216;6.778;2023-04-25T00:23:53;16.40;;;5.13;;
13753;SDS011;6948;51.216;6.778;2023-04-25T00:26:20;17.03;;;5.50;;
13753;SDS011;6948;51.216;6.778;2023-04-25T00:28:47;18.30;;;5.53;;
13753;SDS011;6948;51.216;6.778;2023-04-25T00:31:13;14.73;;;5.97;;
13753;SDS011;6948;51.216;6.778;2023-04-25T00:33:39;15.87;;;5.70;;
13753;SDS011;6948;51.216;6.778;2023-04-25T00:36:05;14.27;;;5.03;;
13753;SDS011;6948;51.216;6.778;2023-04-25T00:38:31;13.37;;;5.07;;
13753;SDS011;6948;51.216;6.778;2023-04-25T00:40:56;11.70;;;4.67;;
13753;SDS011;6948;51.216;6.778;2023-04-25T00:43:23;16.20;;;4.63;;
13753;SDS011;6948;51.216;6.778;2023-04-25T00:45:50;14.77;;;5.17;;
13753;SDS011;6948;51.216;6.778;2023-04-25T00:48:17;15.40;;;5.13;;
13753;SDS011;6948;51.216;6.778;2023-04-25T00:50:45;15.60;;;4.93;;
13753;SDS011;6948;51.216;6.778;2023-04-25T00:53:18;13.43;;;4.80;;
13753;SDS011;6948;51.216;6.778;2023-04-25T00:55:45;16.53;;;5.17;;
13753;SDS011;6948;51.216;6.778;2023-04-25T00:58:10;14.50;;;5.00;;
13753;SDS011;6948;51.216;6.778;2023-04-25T01:00:36;13.03;;;5.27;;
13753;SDS011;6948;51.216;6.778;2023-04-25T01:03:02;15.83;;;4.70;;
13753;SDS011;6948;51.216;6.778;2023-04-25T01:05:28;16.83;;;4.70;;
13753;SDS011;6948;51.216;6.778;2023-04-25T01:07:54;13.60;;;4.87;;
13753;SDS011;6948;51.216;6.778;2023-04-25T01:10:20;14.97;;;5.10;;
13753;SDS011;6948;51.216;6.778;2023-04-25T01:12:46;10.93;;;4.40;;
13753;SDS011;6948;51.216;6.778;2023-04-25T01:15:12;12.23;;;4.47;;
13753;SDS011;6948;51.216;6.778;2023-04-25T01:17:38;11.53;;;5.00;;
13753;SDS011;6948;51.216;6.778;2023-04-25T01:20:05;10.57;;;4.70;;
13753;SDS011;6948;51.216;6.778;2023-04-25T01:22:32;11.73;;;5.07;;
13753;SDS011;6948;51.216;6.778;2023-04-25T01:24:59;14.97;;;5.30;;
13753;SDS011;6948;51.216;6.778;2023-04-25T01:27:25;15.40;;;4.90;;
13753;SDS011;6948;51.216;6.778;2023-04-25T01:29:51;12.87;;;4.90;;
13753;SDS011;6948;51.216;6.778;2023-04-25T01:32:18;11.70;;;4.83;;
13753;SDS011;6948;51.216;6.778;2023-04-25T01:34:45;13.20;;;4.93;;
13753;SDS011;6948;51.216;6.778;2023-04-25T01:37:11;13.00;;;4.90;;
13753;SDS011;6948;51.216;6.778;2023-04-25T01:39:36;12.93;;;4.60;;
13753;SDS011;6948;51.216;6.778;2023-04-25T01:42:02;12.90;;;4.70;;
13753;SDS011;6948;51.216;6.778;2023-04-25T01:44:28;15.00;;;5.07;;
13753;SDS011;6948;51.216;6.778;2023-04-25T01:46:53;9.77;;;4.43;;
13753;SDS011;6948;51.216;6.778;2023-04-25T01:49:19;11.00;;;4.93;;
13753;SDS011;6948;51.216;6.778;2023-04-25T01:51:45;12.47;;;4.87;;
13753;SDS011;6948;51.216;6.778;2023-04-25T01:54:10;9.37;;;4.30;;
13753;SDS011;6948;51.216;6.778;2023-04-25T01:56:37;14.80;;;5.17;;
13753;SDS011;6948;51.216;6.778;2023-04-25T01:59:04;13.50;;;5.50;;
13753;SDS011;6948;51.216;6.778;2023-04-25T02:01:30;11.37;;;5.30;;
13753;SDS011;6948;51.216;6.778;2023-04-25T02:03:56;11.87;;;4.93;;
13753;SDS011;6948;51.216;6.778;2023-04-25T02:06:22;10.17;;;4.63;;
13753;SDS011;6948;51.216;6.778;2023-04-25T02:08:47;10.90;;;4.70;;
13753;SDS011;6948;51.216;6.778;2023-04-25T02:11:13;11.27;;;4.70;;
13753;SDS011;6948;51.216;6.778;2023-04-25T02:13:39;10.07;;;4.73;;
13753;SDS011;6948;51.216;6.778;2023-04-25T02:16:05;10.17;;;5.10;;
13753;SDS011;6948;51.216;6.778;2023-04-25T02:18:30;13.47;;;4.50;;
13753;SDS011;6948;51.216;6.778;2023-04-25T02:20:58;11.37;;;4.63;;
13753;SDS011;6948;51.216;6.778;2023-04-25T02:23:24;7.77;;;3.77;;
13753;SDS011;6948;51.216;6.778;2023-04-25T02:25:50;7.50;;;3.50;;
13753;SDS011;6948;51.216;6.778;2023-04-25T02:28:16;10.37;;;4.13;;
13753;SDS011;6948;51.216;6.778;2023-04-25T02:30:42;8.23;;;3.57;;
13753;SDS011;6948;51.216;6.778;2023-04-25T02:33:08;6.90;;;3.67;;
13753;SDS011;6948;51.216;6.778;2023-04-25T02:35:33;9.07;;;3.63;;
13753;SDS011;6948;51.216;6.778;2023-04-25T02:37:59;5.90;;;3.47;;
13753;SDS011;6948;51.216;6.778;2023-04-25T02:40:25;9.67;;;3.63;;
13753;SDS011;6948;51.216;6.778;2023-04-25T02:42:51;8.13;;;3.70;;
13753;SDS011;6948;51.216;6.778;2023-04-25T02:45:16;8.60;;;4.00;;
13753;SDS011;6948;51.216;6.778;2023-04-25T02:47:42;10.90;;;3.60;;
13753;SDS011;6948;51.216;6.778;2023-04-25T02:50:08;8.37;;;3.40;;
13753;SDS011;6948;51.216;6.778;2023-04-25T02:52:34;6.77;;;4.00;;
13753;SDS011;6948;51.216;6.778;2023-04-25T02:55:00;8.53;;;3.57;;
13753;SDS011;6948;51.216;6.778;2023-04-25T02:57:26;9.03;;;3.80;;
13753;SDS011;6948;51.216;6.778;2023-04-25T02:59:51;11.10;;;4.23;;
13753;SDS011;6948;51.216;6.778;2023-04-25T03:02:17;7.73;;;4.13;;
13753;SDS011;6948;51.216;6.778;2023-04-25T03:04:42;9.40;;;3.83;;
13753;SDS011;6948;51.216;6.778;2023-04-25T03:07:08;10.80;;;4.70;;
13753;SDS011;6948;51.216;6.778;2023-04-25T03:09:34;9.80;;;4.37;;
13753;SDS011;6948;51.216;6.778;2023-04-25T03:11:59;10.90;;;4.30;;
13753;SDS011;6948;51.216;6.778;2023-04-25T03:14:26;8.27;;;4.10;;
13753;SDS011;6948;51.216;6.778;2023-04-25T03:16:52;10.27;;;4.40;;
13753;SDS011;6948;51.216;6.778;2023-04-25T03:19:17;10.10;;;4.70;;
13753;SDS011;6948;51.216;6.778;2023-04-25T03:21:43;13.07;;;5.23;;
13753;SDS011;6948;51.216;6.778;2023-04-25T03:24:09;12.13;;;4.63;;
13753;SDS011;6948;51.216;6.778;2023-04-25T03:26:36;8.77;;;4.20;;
13753;SDS011;6948;51.216;6.778;2023-04-25T03:29:02;11.73;;;4.90;;
13753;SDS011;6948;51.216;6.778;2023-04-25T03:31:28;13.63;;;4.80;;
13753;SDS011;6948;51.216;6.778;2023-04-25T03:33:53;14.20;;;4.93;;
13753;SDS011;6948;51.216;6.778;2023-04-25T03:36:19;10.47;;;4.60;;
13753;SDS011;6948;51.216;6.778;2023-04-25T03:38:44;9.70;;;5.13;;
13753;SDS011;6948;51.216;6.778;2023-04-25T03:41:11;12.90;;;4.90;;
13753;SDS011;6948;51.216;6.778;2023-04-25T03:43:36;13.13;;;5.07;;
13753;SDS011;6948;51.216;6.778;2023-04-25T03:46:02;16.00;;;5.60;;
13753;SDS011;6948;51.216;6.778;2023-04-25T03:48:28;13.53;;;5.27;;
13753;SDS011;6948;51.216;6.778;2023-04-25T03:50:54;10.87;;;4.83;;
13753;SDS011;6948;51.216;6.778;2023-04-25T03:53:19;12.27;;;5.20;;
13753;SDS011;6948;51.216;6.778;2023-04-25T03:55:45;13.37;;;5.30;;
13753;SDS011;6948;51.216;6.778;2023-04-25T03:58:11;10.57;;;5.40;;
13753;SDS011;6948;51.216;6.778;2023-04-25T04:00:36;13.37;;;5.67;;
13753;SDS011;6948;51.216;6.778;2023-04-25T04:03:02;16.30;;;5.60;;
13753;SDS011;6948;51.216;6.778;2023-04-25T04:05:28;15.30;;;5.70;;
13753;SDS011;6948;51.216;6.778;2023-04-25T04:07:54;16.70;;;5.80;;
13753;SDS011;6948;51.216;6.778;2023-04-25T04:10:20;13.77;;;5.90;;
13753;SDS011;6948;51.216;6.778;2023-04-25T04:12:46;14.37;;;5.93;;
13753;SDS011;6948;51.216;6.778;2023-04-25T04:15:12;17.90;;;5.40;;
13753;SDS011;6948;51.216;6.778;2023-04-25T04:17:41;13.00;;;5.23;;
13753;SDS011;6948;51.216;6.778;2023-04-25T04:20:07;14.40;;;5.97;;
13753;SDS011;6948;51.216;6.778;2023-04-25T04:22:33;19.47;;;5.33;;
13753;SDS011;6948;51.216;6.778;2023-04-25T04:24:59;16.93;;;5.53;;
13753;SDS011;6948;51.216;6.778;2023-04-25T04:27:25;18.27;;;5.87;;
13753;SDS011;6948;51.216;6.778;2023-04-25T04:29:51;17.40;;;5.90;;
13753;SDS011;6948;51.216;6.778;2023-04-25T04:32:18;13.70;;;5.30;;
13753;SDS011;6948;51.216;6.778;2023-04-25T04:34:43;18.33;;;5.53;;
13753;SDS011;6948;51.216;6.778;2023-04-25T04:37:09;17.83;;;5.77;;
13753;SDS011;6948;51.216;6.778;2023-04-25T04:39:35;16.53;;;6.07;;
13753;SDS011;6948;51.216;6.778;2023-04-25T04:42:01;16.73;;;5.73;;
13753;SDS011;6948;51.216;6.778;2023-04-25T04:44:29;13.30;;;5.43;;
13753;SDS011;6948;51.216;6.778;2023-04-25T04:46:57;15.07;;;5.63;;
13753;SDS011;6948;51.216;6.778;2023-04-25T04:49:24;15.83;;;5.47;;
13753;SDS011;6948;51.216;6.778;2023-04-25T04:51:49;17.50;;;5.67;;
13753;SDS011;6948;51.216;6.778;2023-04-25T04:54:15;15.27;;;5.80;;
13753;SDS011;6948;51.216;6.778;2023-04-25T04:56:41;16.93;;;5.83;;
13753;SDS011;6948;51.216;6.778;2023-04-25T04:59:07;16.97;;;5.40;;
13753;SDS011;6948;51.216;6.778;2023-04-25T05:01:32;20.00;;;6.13;;
13753;SDS011;6948;51.216;6.778;2023-04-25T05:04:00;16.83;;;5.43;;
13753;SDS011;6948;51.216;6.778;2023-04-25T05:06:27;19.03;;;6.03;;
13753;SDS011;6948;51.216;6.778;2023-04-25T05:08:54;15.07;;;5.30;;
13753;SDS011;6948;51.216;6.778;2023-04-25T05:11:21;16.73;;;5.70;;
13753;SDS011;6948;51.216;6.778;2023-04-25T05:13:47;16.13;;;5.80;;
13753;SDS011;6948;51.216;6.778;2023-04-25T05:16:12;15.37;;;5.57;;
13753;SDS011;6948;51.216;6.778;2023-04-25T05:18:39;15.40;;;5.20;;
13753;SDS011;6948;51.216;6.778;2023-04-25T05:21:04;18.53;;;5.67;;
13753;SDS011;6948;51.216;6.778;2023-04-25T05:23:30;18.10;;;5.50;;
13753;SDS011;6948;51.216;6.778;2023-04-25T05:25:57;18.10;;;6.00;;
13753;SDS011;6948;51.216;6.778;2023-04-25T05:28:22;16.17;;;5.90;;
13753;SDS011;6948;51.216;6.778;2023-04-25T05:30:48;17.37;;;5.43;;
13753;SDS011;6948;51.216;6.778;2023-04-25T05:33:14;16.33;;;5.80;;
13753;SDS011;6948;51.216;6.778;2023-04-25T05:35:40;18.30;;;5.87;;
13753;SDS011;6948;51.216;6.778;2023-04-25T05:38:06;17.27;;;5.80;;
13753;SDS011;6948;51.216;6.778;2023-04-25T05:40:31;14.10;;;5.50;;
13753;SDS011;6948;51.216;6.778;2023-04-25T05:42:57;16.23;;;4.93;;
13753;SDS011;6948;51.216;6.778;2023-04-25T05:45:23;14.73;;;5.90;;
13753;SDS011;6948;51.216;6.778;2023-04-25T05:47:48;22.50;;;6.40;;
13753;SDS011;6948;51.216;6.778;2023-04-25T05:50:14;11.30;;;4.77;;
13753;SDS011;6948;51.216;6.778;2023-04-25T05:52:40;18.83;;;5.70;;
13753;SDS011;6948;51.216;6.778;2023-04-25T05:55:05;20.40;;;5.90;;
13753;SDS011;6948;51.216;6.778;2023-04-25T05:57:31;17.43;;;5.33;;
13753;SDS011;6948;51.216;6.778;2023-04-25T05:59:57;16.50;;;5.73;;
13753;SDS011;6948;51.216;6.778;2023-04-25T06:02:23;14.07;;;5.50;;
13753;SDS011;6948;51.216;6.778;2023-04-25T06:04:49;16.30;;;5.23;;
13753;SDS011;6948;51.216;6.778;2023-04-25T06:07:16;21.40;;;5.10;;
13753;SDS011;6948;51.216;6.778;2023-04-25T06:09:42;19.37;;;5.50;;
13753;SDS011;6948;51.216;6.778;2023-04-25T06:12:09;15.07;;;5.57;;
13753;SDS011;6948;51.216;6.778;2023-04-25T06:14:34;17.00;;;5.30;;
13753;SDS011;6948;51.216;6.778;2023-04-25T06:17:00;16.33;;;5.23;;
13753;SDS011;6948;51.216;6.778;2023-04-25T06:19:32;16.07;;;5.00;;
13753;SDS011;6948;51.216;6.778;2023-04-25T06:21:57;15.13;;;5.10;;
13753;SDS011;6948;51.216;6.778;2023-04-25T06:24:23;15.13;;;4.90;;
13753;SDS011;6948;51.216;6.778;2023-04-25T06:26:49;12.80;;;4.23;;
13753;SDS011;6948;51.216;6.778;2023-04-25T06:29:15;16.07;;;4.30;;
13753;SDS011;6948;51.216;6.778;2023-04-25T06:31:40;15.03;;;4.53;;
13753;SDS011;6948;51.216;6.778;2023-04-25T06:34:06;14.27;;;4.63;;
13753;SDS011;6948;51.216;6.778;2023-04-25T06:36:31;14.07;;;4.57;;
13753;SDS011;6948;51.216;6.778;2023-04-25T06:38:57;13.13;;;4.50;;
13753;SDS011;6948;51.216;6.778;2023-04-25T06:41:23;15.23;;;4.40;;
13753;SDS011;6948;51.216;6.778;2023-04-25T06:43:48;13.67;;;4.37;;
13753;SDS011;6948;51.216;6.778;2023-04-25T06:46:14;18.30;;;4.80;;
13753;SDS011;6948;51.216;6.778;2023-04-25T06:48:39;14.20;;;4.00;;
13753;SDS011;6948;51.216;6.778;2023-04-25T06:51:05;16.93;;;4.50;;
13753;SDS011;6948;51.216;6.778;2023-04-25T06:53:31;13.90;;;4.13;;
13753;SDS011;6948;51.216;6.778;2023-04-25T06:55:56;16.50;;;4.23;;
13753;SDS011;6948;51.216;6.778;2023-04-25T06:58:22;15.00;;;4.07;;
13753;SDS011;6948;51.216;6.778;2023-04-25T07:00:47;13.73;;;4.17;;
13753;SDS011;6948;51.216;6.778;2023-04-25T07:03:13;11.20;;;4.13;;
13753;SDS011;6948;51.216;6.778;2023-04-25T07:05:39;15.90;;;3.80;;
13753;SDS011;6948;51.216;6.778;2023-04-25T07:08:05;15.53;;;3.87;;
13753;SDS011;6948;51.216;6.778;2023-04-25T07:10:31;15.40;;;4.20;;
13753;SDS011;6948;51.216;6.778;2023-04-25T07:12:56;11.43;;;3.63;;
13753;SDS011;6948;51.216;6.778;2023-04-25T07:15:22;14.33;;;4.17;;
13753;SDS011;6948;51.216;6.778;2023-04-25T07:17:48;13.40;;;4.10;;
13753;SDS011;6948;51.216;6.778;2023-04-25T07:20:13;17.77;;;4.00;;
13753;SDS011;6948;51.216;6.778;2023-04-25T07:22:39;10.87;;;3.60;;
13753;SDS011;6948;51.216;6.778;2023-04-25T07:25:05;15.50;;;4.40;;
13753;SDS011;6948;51.216;6.778;2023-04-25T07:27:31;12.50;;;3.83;;
13753;SDS011;6948;51.216;6.778;2023-04-25T07:29:57;11.77;;;4.40;;
13753;SDS011;6948;51.216;6.778;2023-04-25T07:32:22;16.20;;;3.83;;
13753;SDS011;6948;51.216;6.778;2023-04-25T07:34:48;14.00;;;4.27;;
13753;SDS011;6948;51.216;6.778;2023-04-25T07:37:14;14.00;;;3.60;;
13753;SDS011;6948;51.216;6.778;2023-04-25T07:39:40;14.33;;;3.80;;
13753;SDS011;6948;51.216;6.778;2023-04-25T07:42:06;13.63;;;3.87;;
13753;SDS011;6948;51.216;6.778;2023-04-25T07:44:33;15.57;;;4.67;;
13753;SDS011;6948;51.216;6.778;2023-04-25T07:47:04;13.00;;;3.70;;
13753;SDS011;6948;51.216;6.778;2023-04-25T07:49:32;15.20;;;3.97;;
13753;SDS011;6948;51.216;6.778;2023-04-25T07:51:59;12.07;;;3.40;;
13753;SDS011;6948;51.216;6.778;2023-04-25T07:54:25;16.53;;;4.10;;
13753;SDS011;6948;51.216;6.778;2023-04-25T07:56:51;13.63;;;4.63;;
13753;SDS011;6948;51.216;6.778;2023-04-25T07:59:17;11.67;;;4.00;;
13753;SDS011;6948;51.216;6.778;2023-04-25T08:01:42;12.83;;;3.57;;
13753;SDS011;6948;51.216;6.778;2023-04-25T08:04:08;13.57;;;4.00;;
13753;SDS011;6948;51.216;6.778;2023-04-25T08:06:34;13.47;;;3.00;;
13753;SDS011;6948;51.216;6.778;2023-04-25T08:09:00;14.60;;;3.73;;
13753;SDS011;6948;51.216;6.778;2023-04-25T08:11:26;14.73;;;3.30;;
13753;SDS011;6948;51.216;6.778;2023-04-25T08:13:52;15.23;;;3.73;;
13753;SDS011;6948;51.216;6.778;2023-04-25T08:16:18;11.10;;;3.40;;
13753;SDS011;6948;51.216;6.778;2023-04-25T08:18:43;14.57;;;3.40;;
13753;SDS011;6948;51.216;6.778;2023-04-25T08:21:09;14.90;;;3.30;;
13753;SDS011;6948;51.216;6.778;2023-04-25T08:23:36;11.13;;;2.87;;
13753;SDS011;6948;51.216;6.778;2023-04-25T08:26:02;13.43;;;3.53;;
13753;SDS011;6948;51.216;6.778;2023-04-25T08:28:29;10.77;;;3.17;;
13753;SDS011;6948;51.216;6.778;2023-04-25T08:30:55;11.57;;;3.67;;
13753;SDS011;6948;51.216;6.778;2023-04-25T08:33:21;13.53;;;4.03;;
13753;SDS011;6948;51.216;6.778;2023-04-25T08:35:46;11.20;;;4.10;;
13753;SDS011;6948;51.216;6.778;2023-04-25T08:38:12;12.93;;;3.90;;
13753;SDS011;6948;51.216;6.778;2023-04-25T08:40:38;16.87;;;3.57;;
13753;SDS011;6948;51.216;6.778;2023-04-25T08:43:05;11.40;;;3.77;;
13753;SDS011;6948;51.216;6.778;2023-04-25T08:45:36;13.40;;;3.43;;
13753;SDS011;6948;51.216;6.778;2023-04-25T08:48:06;13.30;;;3.40;;
13753;SDS011;6948;51.216;6.778;2023-04-25T08:50:38;12.73;;;3.33;;
13753;SDS011;6948;51.216;6.778;2023-04-25T08:53:05;12.07;;;3.53;;
13753;SDS011;6948;51.216;6.778;2023-04-25T08:55:34;10.03;;;4.10;;
13753;SDS011;6948;51.216;6.778;2023-04-25T08:58:03;6.27;;;2.87;;
13753;SDS011;6948;51.216;6.778;2023-04-25T09:00:30;10.83;;;3.03;;
13753;SDS011;6948;51.216;6.778;2023-04-25T09:02:56;8.63;;;2.57;;
13753;SDS011;6948;51.216;6.778;2023-04-25T09:05:23;8.80;;;2.97;;
13753;SDS011;6948;51.216;6.778;2023-04-25T09:07:49;6.63;;;2.40;;
13753;SDS011;6948;51.216;6.778;2023-04-25T09:10:15;7.87;;;2.70;;
13753;SDS011;6948;51.216;6.778;2023-04-25T09:12:41;8.67;;;2.80;;
13753;SDS011;6948;51.216;6.778;2023-04-25T09:15:08;7.97;;;2.93;;
13753;SDS011;6948;51.216;6.778;2023-04-25T09:17:35;8.13;;;2.70;;
13753;SDS011;6948;51.216;6.778;2023-04-25T09:20:07;8.97;;;3.20;;
13753;SDS011;6948;51.216;6.778;2023-04-25T09:22:36;11.00;;;3.17;;
13753;SDS011;6948;51.216;6.778;2023-04-25T09:25:07;9.83;;;3.03;;
13753;SDS011;6948;51.216;6.778;2023-04-25T09:27:34;9.30;;;3.03;;
13753;SDS011;6948;51.216;6.778;2023-04-25T09:30:00;7.90;;;2.50;;
13753;SDS011;6948;51.216;6.778;2023-04-25T09:32:27;8.83;;;2.47;;
13753;SDS011;6948;51.216;6.778;2023-04-25T09:34:55;8.93;;;3.20;;
13753;SDS011;6948;51.216;6.778;2023-04-25T09:39:59;12.00;;;3.20;;
13753;SDS011;6948;51.216;6.778;2023-04-25T09:42:28;9.60;;;2.73;;
13753;SDS011;6948;51.216;6.778;2023-04-25T09:44:56;7.83;;;2.57;;
13753;SDS011;6948;51.216;6.778;2023-04-25T09:47:23;5.47;;;2.20;;
13753;SDS011;6948;51.216;6.778;2023-04-25T09:49:50;10.03;;;2.97;;
13753;SDS011;6948;51.216;6.778;2023-04-25T09:52:17;8.30;;;2.43;;
13753;SDS011;6948;51.216;6.778;2023-04-25T09:54:45;7.17;;;2.60;;
13753;SDS011;6948;51.216;6.778;2023-04-25T09:59:50;5.47;;;2.37;;
13753;SDS011;6948;51.216;6.778;2023-04-25T10:02:18;6.97;;;2.53;;
13753;SDS011;6948;51.216;6.778;2023-04-25T10:04:49;5.23;;;2.27;;
13753;SDS011;6948;51.216;6.778;2023-04-25T10:07:18;7.47;;;2.50;;
13753;SDS011;6948;51.216;6.778;2023-04-25T10:09:45;10.70;;;2.30;;
13753;SDS011;6948;51.216;6.778;2023-04-25T10:12:14;6.70;;;2.07;;
13753;SDS011;6948;51.216;6.778;2023-04-25T10:14:41;6.63;;;2.57;;
13753;SDS011;6948;51.216;6.778;2023-04-25T10:17:08;7.83;;;2.27;;
13753;SDS011;6948;51.216;6.778;2023-04-25T10:19:36;5.77;;;2.40;;
13753;SDS011;6948;51.216;6.778;2023-04-25T10:22:07;6.90;;;2.37;;
13753;SDS011;6948;51.216;6.778;2023-04-25T10:24:36;6.97;;;2.93;;
13753;SDS011;6948;51.216;6.778;2023-04-25T10:27:04;8.90;;;2.60;;
13753;SDS011;6948;51.216;6.778;2023-04-25T10:29:30;7.83;;;2.43;;
13753;SDS011;6948;51.216;6.778;2023-04-25T10:31:56;7.93;;;1.97;;
13753;SDS011;6948;51.216;6.778;2023-04-25T10:34:24;5.67;;;2.20;;
13753;SDS011;6948;51.216;6.778;2023-04-25T10:37:08;6.07;;;2.53;;
13753;SDS011;6948;51.216;6.778;2023-04-25T10:39:35;9.33;;;2.50;;
13753;SDS011;6948;51.216;6.778;2023-04-25T10:42:02;7.43;;;2.00;;
13753;SDS011;6948;51.216;6.778;2023-04-25T10:44:28;8.10;;;2.70;;
13753;SDS011;6948;51.216;6.778;2023-04-25T10:46:55;5.57;;;1.97;;
13753;SDS011;6948;51.216;6.778;2023-04-25T10:49:31;6.63;;;1.90;;
13753;SDS011;6948;51.216;6.778;2023-04-25T10:54:54;5.20;;;1.87;;
13753;SDS011;6948;51.216;6.778;2023-04-25T11:00:06;6.93;;;1.93;;
13753;SDS011;6948;51.216;6.778;2023-04-25T11:02:37;5.87;;;1.90;;
13753;SDS011;6948;51.216;6.778;2023-04-25T11:05:20;5.40;;;2.00;;
13753;SDS011;6948;51.216;6.778;2023-04-25T11:07:52;8.03;;;2.17;;
13753;SDS011;6948;51.216;6.778;2023-04-25T11:10:25;4.63;;;2.00;;
13753;SDS011;6948;51.216;6.778;2023-04-25T11:12:52;4.07;;;2.00;;
13753;SDS011;6948;51.216;6.778;2023-04-25T11:15:18;4.93;;;2.23;;
13753;SDS011;6948;51.216;6.778;2023-04-25T11:17:44;3.77;;;1.90;;
13753;SDS011;6948;51.216;6.778;2023-04-25T11:20:11;8.30;;;2.30;;
13753;SDS011;6948;51.216;6.778;2023-04-25T11:22:39;3.83;;;2.00;;
13753;SDS011;6948;51.216;6.778;2023-04-25T11:25:06;4.50;;;2.07;;
13753;SDS011;6948;51.216;6.778;2023-04-25T11:27:33;5.50;;;2.17;;
13753;SDS011;6948;51.216;6.778;2023-04-25T11:30:10;6.37;;;2.30;;
13753;SDS011;6948;51.216;6.778;2023-04-25T11:32:38;4.77;;;1.90;;
13753;SDS011;6948;51.216;6.778;2023-04-25T11:35:05;7.50;;;2.27;;
13753;SDS011;6948;51.216;6.778;2023-04-25T11:37:32;5.40;;;2.30;;
13753;SDS011;6948;51.216;6.778;2023-04-25T11:39:59;6.10;;;2.40;;
13753;SDS011;6948;51.216;6.778;2023-04-25T11:42:26;5.57;;;2.30;;
13753;SDS011;6948;51.216;6.778;2023-04-25T11:44:51;6.87;;;2.70;;
13753;SDS011;6948;51.216;6.778;2023-04-25T11:47:17;7.77;;;2.40;;
13753;SDS011;6948;51.216;6.778;2023-04-25T11:49:43;7.70;;;2.67;;
13753;SDS011;6948;51.216;6.778;2023-04-25T11:52:08;4.50;;;2.17;;
13753;SDS011;6948;51.216;6.778;2023-04-25T11:54:35;7.10;;;2.37;;
13753;SDS011;6948;51.216;6.778;2023-04-25T11:57:01;6.97;;;2.77;;
13753;SDS011;6948;51.216;6.778;2023-04-25T11:59:28;6.03;;;2.27;;
13753;SDS011;6948;51.216;6.778;2023-04-25T12:01:53;9.00;;;2.27;;
13753;SDS011;6948;51.216;6.778;2023-04-25T12:04:20;5.67;;;2.20;;
13753;SDS011;6948;51.216;6.778;2023-04-25T12:06:47;8.60;;;3.00;;
13753;SDS011;6948;51.216;6.778;2023-04-25T12:09:16;5.97;;;2.40;;
13753;SDS011;6948;51.216;6.778;2023-04-25T12:11:47;7.80;;;2.53;;
13753;SDS011;6948;51.216;6.778;2023-04-25T12:14:21;4.90;;;1.90;;
13753;SDS011;6948;51.216;6.778;2023-04-25T12:16:49;6.93;;;2.40;;
13753;SDS011;6948;51.216;6.778;2023-04-25T12:19:17;8.90;;;2.57;;
13753;SDS011;6948;51.216;6.778;2023-04-25T12:21:44;7.63;;;2.60;;
13753;SDS011;6948;51.216;6.778;2023-04-25T12:24:10;5.13;;;2.00;;
13753;SDS011;6948;51.216;6.778;2023-04-25T12:26:53;9.13;;;3.70;;
13753;SDS011;6948;51.216;6.778;2023-04-25T12:29:34;15.03;;;4.43;;
13753;SDS011;6948;51.216;6.778;2023-04-25T12:32:00;10.17;;;4.50;;
13753;SDS011;6948;51.216;6.778;2023-04-25T12:34:26;11.07;;;4.27;;
13753;SDS011;6948;51.216;6.778;2023-04-25T12:36:53;14.93;;;5.13;;
13753;SDS011;6948;51.216;6.778;2023-04-25T12:39:20;11.63;;;4.67;;
13753;SDS011;6948;51.216;6.778;2023-04-25T12:41:47;11.53;;;4.70;;
13753;SDS011;6948;51.216;6.778;2023-04-25T12:44:13;10.77;;;4.23;;
13753;SDS011;6948;51.216;6.778;2023-04-25T12:46:39;10.93;;;3.93;;
13753;SDS011;6948;51.216;6.778;2023-04-25T12:49:07;9.67;;;3.37;;
13753;SDS011;6948;51.216;6.778;2023-04-25T12:51:33;8.37;;;3.47;;
13753;SDS011;6948;51.216;6.778;2023-04-25T12:54:00;9.73;;;3.67;;
13753;SDS011;6948;51.216;6.778;2023-04-25T12:56:27;10.37;;;3.43;;
13753;SDS011;6948;51.216;6.778;2023-04-25T12:58:53;8.20;;;3.07;;
13753;SDS011;6948;51.216;6.778;2023-04-25T13:01:20;8.43;;;3.17;;
13753;SDS011;6948;51.216;6.778;2023-04-25T13:03:47;9.80;;;3.60;;
13753;SDS011;6948;51.216;6.778;2023-04-25T13:06:14;8.80;;;3.23;;
13753;SDS011;6948;51.216;6.778;2023-04-25T13:08:40;8.50;;;3.03;;
13753;SDS011;6948;51.216;6.778;2023-04-25T13:11:07;6.70;;;2.93;;
13753;SDS011;6948;51.216;6.778;2023-04-25T13:13:33;5.27;;;2.50;;
13753;SDS011;6948;51.216;6.778;2023-04-25T13:16:00;8.13;;;2.50;;
13753;SDS011;6948;51.216;6.778;2023-04-25T13:18:27;6.37;;;2.40;;
13753;SDS011;6948;51.216;6.778;2023-04-25T13:20:53;5.30;;;2.17;;
13753;SDS011;6948;51.216;6.778;2023-04-25T13:23:19;6.73;;;2.20;;
13753;SDS011;6948;51.216;6.778;2023-04-25T13:25:45;7.17;;;2.33;;
13753;SDS011;6948;51.216;6.778;2023-04-25T13:28:12;4.83;;;2.13;;
13753;SDS011;6948;51.216;6.778;2023-04-25T13:30:37;7.07;;;2.53;;
13753;SDS011;6948;51.216;6.778;2023-04-25T13:33:03;4.80;;;2.20;;
13753;SDS011;6948;51.216;6.778;2023-04-25T13:35:31;5.17;;;2.23;;
13753;SDS011;6948;51.216;6.778;2023-04-25T13:37:58;6.73;;;2.47;;
13753;SDS011;6948;51.216;6.778;2023-04-25T13:40:24;7.40;;;2.40;;
13753;SDS011;6948;51.216;6.778;2023-04-25T13:42:50;8.30;;;3.10;;
13753;SDS011;6948;51.216;6.778;2023-04-25T13:45:16;9.67;;;3.10;;
13753;SDS011;6948;51.216;6.778;2023-04-25T13:47:42;7.67;;;2.10;;
13753;SDS011;6948;51.216;6.778;2023-04-25T13:50:08;5.77;;;2.33;;
13753;SDS011;6948;51.216;6.778;2023-04-25T13:52:34;6.10;;;2.53;;
13753;SDS011;6948;51.216;6.778;2023-04-25T13:55:00;5.23;;;2.00;;
13753;SDS011;6948;51.216;6.778;2023-04-25T13:57:28;6.47;;;2.17;;
13753;SDS011;6948;51.216;6.778;2023-04-25T13:59:55;5.70;;;2.23;;
13753;SDS011;6948;51.216;6.778;2023-04-25T14:02:21;3.90;;;1.70;;
13753;SDS011;6948;51.216;6.778;2023-04-25T14:04:47;4.50;;;2.10;;
13753;SDS011;6948;51.216;6.778;2023-04-25T14:07:13;5.67;;;2.30;;
13753;SDS011;6948;51.216;6.778;2023-04-25T14:09:41;5.30;;;2.27;;
13753;SDS011;6948;51.216;6.778;2023-04-25T14:12:07;7.37;;;2.20;;
13753;SDS011;6948;51.216;6.778;2023-04-25T14:14:33;5.23;;;2.13;;
13753;SDS011;6948;51.216;6.778;2023-04-25T14:16:58;6.00;;;2.17;;
13753;SDS011;6948;51.216;6.778;2023-04-25T14:19:24;6.57;;;2.67;;
13753;SDS011;6948;51.216;6.778;2023-04-25T14:21:50;5.70;;;2.47;;
13753;SDS011;6948;51.216;6.778;2023-04-25T14:24:16;6.10;;;2.27;;
13753;SDS011;6948;51.216;6.778;2023-04-25T14:26:42;8.03;;;2.40;;
13753;SDS011;6948;51.216;6.778;2023-04-25T14:29:09;5.13;;;2.17;;
13753;SDS011;6948;51.216;6.778;2023-04-25T14:31:37;5.63;;;2.20;;
13753;SDS011;6948;51.216;6.778;2023-04-25T14:34:04;4.30;;;1.90;;
13753;SDS011;6948;51.216;6.778;2023-04-25T14:36:30;6.53;;;2.43;;
13753;SDS011;6948;51.216;6.778;2023-04-25T14:38:57;7.20;;;2.27;;
13753;SDS011;6948;51.216;6.778;2023-04-25T14:41:22;5.77;;;2.20;;
13753;SDS011;6948;51.216;6.778;2023-04-25T14:43:49;6.20;;;2.27;;
13753;SDS011;6948;51.216;6.778;2023-04-25T14:46:14;6.00;;;2.50;;
13753;SDS011;6948;51.216;6.778;2023-04-25T14:48:40;7.97;;;3.03;;
13753;SDS011;6948;51.216;6.778;2023-04-25T14:51:05;8.83;;;2.77;;
13753;SDS011;6948;51.216;6.778;2023-04-25T14:53:31;6.73;;;2.50;;
13753;SDS011;6948;51.216;6.778;2023-04-25T14:55:57;7.97;;;2.10;;
13753;SDS011;6948;51.216;6.778;2023-04-25T14:58:23;6.00;;;2.67;;
13753;SDS011;6948;51.216;6.778;2023-04-25T15:00:49;7.57;;;2.43;;